sensor_id;sensor_type;location;lat;lon;timestamp;P1;durP1;ratioP1;P2;durP2;ratioP2
63259;SDS011;49390;51.380;0.098;2023-04-30T00:01:58;29.10;;;15.10;;
63259;SDS011;49390;51.380;0.098;2023-04-30T00:04:26;28.20;;;14.50;;
63259;SDS011;49390;51.380;0.098;2023-04-30T00:06:54;32.75;;;14.60;;
63259;SDS011;49390;51.380;0.098;2023-04-30T00:09:22;26.65;;;14.13;;
63259;SDS011;49390;51.380;0.098;2023-04-30T00:11:50;24.88;;;15.38;;
63259;SDS011;49390;51.380;0.098;2023-04-30T00:14:18;27.38;;;15.48;;
63259;SDS011;49390;51.380;0.098;2023-04-30T00:16:46;29.23;;;15.88;;
63259;SDS011;49390;51.380;0.098;2023-04-30T00:19:14;27.05;;;16.17;;
63259;SDS011;49390;51.380;0.098;2023-04-30T00:21:42;27.88;;;14.65;;
63259;SDS011;49390;51.380;0.098;2023-04-30T00:24:10;26.33;;;14.95;;
63259;SDS011;49390;51.380;0.098;2023-04-30T00:26:38;28.02;;;15.82;;
63259;SDS011;49390;51.380;0.098;2023-04-30T00:29:06;32.78;;;16.48;;
63259;SDS011;49390;51.380;0.098;2023-04-30T00:31:33;29.08;;;15.45;;
63259;SDS011;49390;51.380;0.098;2023-04-30T00:34:02;26.33;;;15.10;;
63259;SDS011;49390;51.380;0.098;2023-04-30T00:36:29;29.65;;;16.05;;
63259;SDS011;49390;51.380;0.098;2023-04-30T00:38:58;27.60;;;15.23;;
63259;SDS011;49390;51.380;0.098;2023-04-30T00:41:26;30.00;;;16.00;;
63259;SDS011;49390;51.380;0.098;2023-04-30T00:43:55;29.35;;;16.70;;
63259;SDS011;49390;51.380;0.098;2023-04-30T00:46:23;26.73;;;15.38;;
63259;SDS011;49390;51.380;0.098;2023-04-30T00:48:51;30.20;;;16.63;;
63259;SDS011;49390;51.380;0.098;2023-04-30T00:51:19;27.75;;;16.17;;
63259;SDS011;49390;51.380;0.098;2023-04-30T00:53:47;31.20;;;14.95;;
63259;SDS011;49390;51.380;0.098;2023-04-30T00:56:15;29.58;;;15.48;;
63259;SDS011;49390;51.380;0.098;2023-04-30T00:58:46;26.73;;;16.23;;
63259;SDS011;49390;51.380;0.098;2023-04-30T01:01:18;30.10;;;15.90;;
63259;SDS011;49390;51.380;0.098;2023-04-30T01:03:48;36.27;;;16.17;;
63259;SDS011;49390;51.380;0.098;2023-04-30T01:06:16;28.45;;;15.80;;
63259;SDS011;49390;51.380;0.098;2023-04-30T01:08:45;27.75;;;16.48;;
63259;SDS011;49390;51.380;0.098;2023-04-30T01:11:35;33.53;;;17.58;;
63259;SDS011;49390;51.380;0.098;2023-04-30T01:14:30;31.85;;;16.85;;
63259;SDS011;49390;51.380;0.098;2023-04-30T01:28:19;29.92;;;16.42;;
63259;SDS011;49390;51.380;0.098;2023-04-30T01:30:48;32.90;;;16.27;;
63259;SDS011;49390;51.380;0.098;2023-04-30T01:33:16;30.25;;;16.40;;
63259;SDS011;49390;51.380;0.098;2023-04-30T01:50:24;28.33;;;16.75;;
63259;SDS011;49390;51.380;0.098;2023-04-30T01:53:08;31.67;;;16.95;;
63259;SDS011;49390;51.380;0.098;2023-04-30T01:58:20;27.52;;;15.90;;
63259;SDS011;49390;51.380;0.098;2023-04-30T02:00:49;34.95;;;17.17;;
63259;SDS011;49390;51.380;0.098;2023-04-30T02:03:18;32.63;;;17.15;;
63259;SDS011;49390;51.380;0.098;2023-04-30T02:05:46;38.92;;;19.67;;
63259;SDS011;49390;51.380;0.098;2023-04-30T02:08:15;38.10;;;20.15;;
63259;SDS011;49390;51.380;0.098;2023-04-30T02:10:43;36.63;;;19.63;;
63259;SDS011;49390;51.380;0.098;2023-04-30T02:13:11;33.47;;;17.70;;
63259;SDS011;49390;51.380;0.098;2023-04-30T02:15:39;34.03;;;19.10;;
63259;SDS011;49390;51.380;0.098;2023-04-30T02:18:07;36.25;;;19.38;;
63259;SDS011;49390;51.380;0.098;2023-04-30T02:20:35;36.17;;;18.67;;
63259;SDS011;49390;51.380;0.098;2023-04-30T02:23:03;35.58;;;18.17;;
63259;SDS011;49390;51.380;0.098;2023-04-30T02:25:31;36.67;;;19.38;;
63259;SDS011;49390;51.380;0.098;2023-04-30T02:28:04;37.38;;;19.38;;
63259;SDS011;49390;51.380;0.098;2023-04-30T02:30:32;37.47;;;20.35;;
63259;SDS011;49390;51.380;0.098;2023-04-30T02:33:00;38.50;;;19.88;;
63259;SDS011;49390;51.380;0.098;2023-04-30T02:35:29;39.13;;;20.10;;
63259;SDS011;49390;51.380;0.098;2023-04-30T02:37:57;40.50;;;20.45;;
63259;SDS011;49390;51.380;0.098;2023-04-30T02:40:25;37.20;;;20.85;;
63259;SDS011;49390;51.380;0.098;2023-04-30T02:42:53;41.17;;;20.75;;
63259;SDS011;49390;51.380;0.098;2023-04-30T02:45:22;36.70;;;19.55;;
63259;SDS011;49390;51.380;0.098;2023-04-30T02:47:51;42.10;;;20.77;;
63259;SDS011;49390;51.380;0.098;2023-04-30T02:50:19;39.88;;;19.85;;
63259;SDS011;49390;51.380;0.098;2023-04-30T02:52:47;40.42;;;20.20;;
63259;SDS011;49390;51.380;0.098;2023-04-30T02:55:14;40.90;;;20.90;;
63259;SDS011;49390;51.380;0.098;2023-04-30T02:57:43;41.10;;;20.02;;
63259;SDS011;49390;51.380;0.098;2023-04-30T03:00:12;40.85;;;19.90;;
63259;SDS011;49390;51.380;0.098;2023-04-30T03:02:40;42.92;;;22.33;;
63259;SDS011;49390;51.380;0.098;2023-04-30T03:05:08;42.63;;;21.42;;
63259;SDS011;49390;51.380;0.098;2023-04-30T03:07:37;38.65;;;20.10;;
63259;SDS011;49390;51.380;0.098;2023-04-30T03:10:05;41.38;;;19.73;;
63259;SDS011;49390;51.380;0.098;2023-04-30T03:12:34;36.58;;;20.02;;
63259;SDS011;49390;51.380;0.098;2023-04-30T03:15:02;40.45;;;20.45;;
63259;SDS011;49390;51.380;0.098;2023-04-30T03:17:30;39.35;;;21.10;;
63259;SDS011;49390;51.380;0.098;2023-04-30T03:19:58;40.35;;;20.65;;
63259;SDS011;49390;51.380;0.098;2023-04-30T03:22:26;39.05;;;21.13;;
63259;SDS011;49390;51.380;0.098;2023-04-30T03:24:54;38.00;;;19.05;;
63259;SDS011;49390;51.380;0.098;2023-04-30T03:27:22;37.97;;;20.33;;
63259;SDS011;49390;51.380;0.098;2023-04-30T03:29:50;38.63;;;19.45;;
63259;SDS011;49390;51.380;0.098;2023-04-30T03:32:18;39.58;;;20.30;;
63259;SDS011;49390;51.380;0.098;2023-04-30T03:34:46;37.78;;;20.70;;
63259;SDS011;49390;51.380;0.098;2023-04-30T03:37:14;36.85;;;20.83;;
63259;SDS011;49390;51.380;0.098;2023-04-30T03:39:42;41.70;;;20.42;;
63259;SDS011;49390;51.380;0.098;2023-04-30T03:42:10;42.28;;;19.77;;
63259;SDS011;49390;51.380;0.098;2023-04-30T03:44:37;38.95;;;19.65;;
63259;SDS011;49390;51.380;0.098;2023-04-30T03:47:05;39.40;;;19.92;;
63259;SDS011;49390;51.380;0.098;2023-04-30T03:49:34;40.67;;;20.80;;
63259;SDS011;49390;51.380;0.098;2023-04-30T03:52:02;40.30;;;19.92;;
63259;SDS011;49390;51.380;0.098;2023-04-30T03:54:32;37.83;;;20.08;;
63259;SDS011;49390;51.380;0.098;2023-04-30T03:57:01;43.85;;;21.27;;
63259;SDS011;49390;51.380;0.098;2023-04-30T03:59:30;45.28;;;20.25;;
63259;SDS011;49390;51.380;0.098;2023-04-30T04:01:59;43.47;;;20.25;;
63259;SDS011;49390;51.380;0.098;2023-04-30T04:04:28;38.78;;;19.58;;
63259;SDS011;49390;51.380;0.098;2023-04-30T04:06:58;42.13;;;19.42;;
63259;SDS011;49390;51.380;0.098;2023-04-30T04:09:26;37.90;;;20.80;;
63259;SDS011;49390;51.380;0.098;2023-04-30T04:11:54;44.85;;;19.85;;
63259;SDS011;49390;51.380;0.098;2023-04-30T04:14:22;39.05;;;19.55;;
63259;SDS011;49390;51.380;0.098;2023-04-30T04:16:50;39.53;;;21.38;;
63259;SDS011;49390;51.380;0.098;2023-04-30T04:19:18;39.05;;;20.23;;
63259;SDS011;49390;51.380;0.098;2023-04-30T04:21:46;38.58;;;19.73;;
63259;SDS011;49390;51.380;0.098;2023-04-30T04:24:15;41.92;;;20.98;;
63259;SDS011;49390;51.380;0.098;2023-04-30T04:26:43;44.00;;;21.08;;
63259;SDS011;49390;51.380;0.098;2023-04-30T04:29:14;42.60;;;21.52;;
63259;SDS011;49390;51.380;0.098;2023-04-30T04:31:42;42.70;;;21.27;;
63259;SDS011;49390;51.380;0.098;2023-04-30T04:34:11;40.90;;;20.88;;
63259;SDS011;49390;51.380;0.098;2023-04-30T04:36:41;41.20;;;20.83;;
63259;SDS011;49390;51.380;0.098;2023-04-30T04:39:09;42.50;;;20.80;;
63259;SDS011;49390;51.380;0.098;2023-04-30T04:41:38;41.65;;;20.25;;
63259;SDS011;49390;51.380;0.098;2023-04-30T04:44:07;41.50;;;20.23;;
63259;SDS011;49390;51.380;0.098;2023-04-30T04:46:35;40.30;;;19.67;;
63259;SDS011;49390;51.380;0.098;2023-04-30T04:49:10;41.85;;;21.13;;
63259;SDS011;49390;51.380;0.098;2023-04-30T04:51:39;41.25;;;21.45;;
63259;SDS011;49390;51.380;0.098;2023-04-30T04:54:07;40.42;;;21.17;;
63259;SDS011;49390;51.380;0.098;2023-04-30T04:56:35;43.50;;;23.20;;
63259;SDS011;49390;51.380;0.098;2023-04-30T04:59:06;44.88;;;22.35;;
63259;SDS011;49390;51.380;0.098;2023-04-30T05:01:34;40.65;;;21.00;;
63259;SDS011;49390;51.380;0.098;2023-04-30T05:04:02;41.70;;;21.92;;
63259;SDS011;49390;51.380;0.098;2023-04-30T05:06:31;38.63;;;20.85;;
63259;SDS011;49390;51.380;0.098;2023-04-30T05:08:59;39.15;;;21.08;;
63259;SDS011;49390;51.380;0.098;2023-04-30T05:11:27;40.70;;;20.60;;
63259;SDS011;49390;51.380;0.098;2023-04-30T05:13:55;40.97;;;20.17;;
63259;SDS011;49390;51.380;0.098;2023-04-30T05:16:24;40.47;;;21.33;;
63259;SDS011;49390;51.380;0.098;2023-04-30T05:18:54;39.78;;;20.25;;
63259;SDS011;49390;51.380;0.098;2023-04-30T05:21:22;38.47;;;19.73;;
63259;SDS011;49390;51.380;0.098;2023-04-30T05:23:54;40.85;;;19.75;;
63259;SDS011;49390;51.380;0.098;2023-04-30T05:26:22;35.13;;;18.33;;
63259;SDS011;49390;51.380;0.098;2023-04-30T05:28:50;36.63;;;18.98;;
63259;SDS011;49390;51.380;0.098;2023-04-30T05:31:19;36.05;;;17.90;;
63259;SDS011;49390;51.380;0.098;2023-04-30T05:33:47;33.42;;;19.23;;
63259;SDS011;49390;51.380;0.098;2023-04-30T05:36:17;42.25;;;20.98;;
63259;SDS011;49390;51.380;0.098;2023-04-30T05:38:45;37.90;;;20.83;;
63259;SDS011;49390;51.380;0.098;2023-04-30T05:41:13;34.47;;;17.83;;
63259;SDS011;49390;51.380;0.098;2023-04-30T05:43:41;32.67;;;17.65;;
63259;SDS011;49390;51.380;0.098;2023-04-30T05:46:09;37.17;;;18.65;;
63259;SDS011;49390;51.380;0.098;2023-04-30T05:48:39;35.63;;;17.65;;
63259;SDS011;49390;51.380;0.098;2023-04-30T05:51:08;32.78;;;17.42;;
63259;SDS011;49390;51.380;0.098;2023-04-30T05:53:38;35.58;;;18.42;;
63259;SDS011;49390;51.380;0.098;2023-04-30T05:56:06;33.33;;;18.10;;
63259;SDS011;49390;51.380;0.098;2023-04-30T05:58:34;35.55;;;17.35;;
63259;SDS011;49390;51.380;0.098;2023-04-30T06:01:02;38.00;;;18.35;;
63259;SDS011;49390;51.380;0.098;2023-04-30T06:03:31;33.63;;;17.52;;
63259;SDS011;49390;51.380;0.098;2023-04-30T06:05:59;37.92;;;17.55;;
63259;SDS011;49390;51.380;0.098;2023-04-30T06:08:28;34.15;;;18.45;;
63259;SDS011;49390;51.380;0.098;2023-04-30T06:10:56;29.77;;;16.55;;
63259;SDS011;49390;51.380;0.098;2023-04-30T06:13:24;28.48;;;16.40;;
63259;SDS011;49390;51.380;0.098;2023-04-30T06:15:55;32.33;;;18.30;;
63259;SDS011;49390;51.380;0.098;2023-04-30T06:18:22;33.00;;;17.10;;
63259;SDS011;49390;51.380;0.098;2023-04-30T06:20:50;27.20;;;15.05;;
63259;SDS011;49390;51.380;0.098;2023-04-30T06:23:18;28.60;;;16.50;;
63259;SDS011;49390;51.380;0.098;2023-04-30T06:25:46;31.15;;;15.98;;
63259;SDS011;49390;51.380;0.098;2023-04-30T06:28:14;29.42;;;16.92;;
63259;SDS011;49390;51.380;0.098;2023-04-30T06:30:42;31.88;;;15.75;;
63259;SDS011;49390;51.380;0.098;2023-04-30T06:33:10;27.55;;;15.70;;
63259;SDS011;49390;51.380;0.098;2023-04-30T06:35:38;30.17;;;16.15;;
63259;SDS011;49390;51.380;0.098;2023-04-30T06:38:06;28.25;;;15.70;;
63259;SDS011;49390;51.380;0.098;2023-04-30T06:40:34;31.58;;;16.55;;
63259;SDS011;49390;51.380;0.098;2023-04-30T06:43:02;29.45;;;16.08;;
63259;SDS011;49390;51.380;0.098;2023-04-30T06:45:30;30.83;;;15.82;;
63259;SDS011;49390;51.380;0.098;2023-04-30T06:47:58;30.55;;;15.73;;
63259;SDS011;49390;51.380;0.098;2023-04-30T06:50:27;31.10;;;15.55;;
63259;SDS011;49390;51.380;0.098;2023-04-30T06:52:54;31.80;;;16.38;;
63259;SDS011;49390;51.380;0.098;2023-04-30T06:55:23;31.25;;;16.52;;
63259;SDS011;49390;51.380;0.098;2023-04-30T06:57:51;28.02;;;15.07;;
63259;SDS011;49390;51.380;0.098;2023-04-30T07:00:20;32.22;;;15.93;;
63259;SDS011;49390;51.380;0.098;2023-04-30T07:02:48;29.65;;;16.23;;
63259;SDS011;49390;51.380;0.098;2023-04-30T07:05:18;32.55;;;16.60;;
63259;SDS011;49390;51.380;0.098;2023-04-30T07:07:46;30.63;;;17.35;;
63259;SDS011;49390;51.380;0.098;2023-04-30T07:10:18;30.70;;;16.83;;
63259;SDS011;49390;51.380;0.098;2023-04-30T07:12:46;32.95;;;16.70;;
63259;SDS011;49390;51.380;0.098;2023-04-30T07:15:14;29.77;;;17.05;;
63259;SDS011;49390;51.380;0.098;2023-04-30T07:17:42;31.55;;;16.75;;
63259;SDS011;49390;51.380;0.098;2023-04-30T07:20:11;28.30;;;17.10;;
63259;SDS011;49390;51.380;0.098;2023-04-30T07:22:43;32.00;;;18.27;;
63259;SDS011;49390;51.380;0.098;2023-04-30T07:25:12;30.85;;;18.00;;
63259;SDS011;49390;51.380;0.098;2023-04-30T07:27:40;29.08;;;17.23;;
63259;SDS011;49390;51.380;0.098;2023-04-30T07:30:08;33.88;;;18.38;;
63259;SDS011;49390;51.380;0.098;2023-04-30T07:32:37;30.55;;;17.67;;
63259;SDS011;49390;51.380;0.098;2023-04-30T07:35:07;31.97;;;17.47;;
63259;SDS011;49390;51.380;0.098;2023-04-30T07:37:35;30.65;;;18.77;;
63259;SDS011;49390;51.380;0.098;2023-04-30T07:40:07;29.65;;;18.13;;
63259;SDS011;49390;51.380;0.098;2023-04-30T07:42:45;33.20;;;19.38;;
63259;SDS011;49390;51.380;0.098;2023-04-30T07:45:13;33.75;;;19.77;;
63259;SDS011;49390;51.380;0.098;2023-04-30T07:47:41;31.80;;;19.05;;
63259;SDS011;49390;51.380;0.098;2023-04-30T07:50:09;34.13;;;20.75;;
63259;SDS011;49390;51.380;0.098;2023-04-30T07:52:41;32.05;;;19.58;;
63259;SDS011;49390;51.380;0.098;2023-04-30T07:55:09;31.17;;;19.17;;
63259;SDS011;49390;51.380;0.098;2023-04-30T07:57:39;32.28;;;19.88;;
63259;SDS011;49390;51.380;0.098;2023-04-30T08:00:07;32.60;;;19.60;;
63259;SDS011;49390;51.380;0.098;2023-04-30T08:02:38;30.95;;;19.75;;
63259;SDS011;49390;51.380;0.098;2023-04-30T08:05:07;33.72;;;20.65;;
63259;SDS011;49390;51.380;0.098;2023-04-30T08:07:35;33.55;;;19.50;;
63259;SDS011;49390;51.380;0.098;2023-04-30T08:10:04;32.17;;;19.42;;
63259;SDS011;49390;51.380;0.098;2023-04-30T08:12:34;32.58;;;19.65;;
63259;SDS011;49390;51.380;0.098;2023-04-30T08:15:03;31.33;;;20.00;;
63259;SDS011;49390;51.380;0.098;2023-04-30T08:17:32;29.52;;;19.52;;
63259;SDS011;49390;51.380;0.098;2023-04-30T08:20:05;34.97;;;21.08;;
63259;SDS011;49390;51.380;0.098;2023-04-30T08:22:33;32.75;;;19.08;;
63259;SDS011;49390;51.380;0.098;2023-04-30T08:25:02;30.00;;;19.77;;
63259;SDS011;49390;51.380;0.098;2023-04-30T08:27:30;30.35;;;19.38;;
63259;SDS011;49390;51.380;0.098;2023-04-30T08:29:58;29.05;;;19.23;;
63259;SDS011;49390;51.380;0.098;2023-04-30T08:32:26;28.42;;;18.33;;
63259;SDS011;49390;51.380;0.098;2023-04-30T08:34:55;29.08;;;19.38;;
63259;SDS011;49390;51.380;0.098;2023-04-30T08:37:23;29.52;;;18.27;;
63259;SDS011;49390;51.380;0.098;2023-04-30T08:39:51;27.50;;;17.50;;
63259;SDS011;49390;51.380;0.098;2023-04-30T08:42:19;26.45;;;17.52;;
63259;SDS011;49390;51.380;0.098;2023-04-30T08:44:51;27.10;;;17.52;;
63259;SDS011;49390;51.380;0.098;2023-04-30T08:47:19;27.25;;;16.98;;
63259;SDS011;49390;51.380;0.098;2023-04-30T08:49:48;26.42;;;17.20;;
63259;SDS011;49390;51.380;0.098;2023-04-30T08:52:16;25.45;;;16.85;;
63259;SDS011;49390;51.380;0.098;2023-04-30T08:54:46;24.52;;;16.02;;
63259;SDS011;49390;51.380;0.098;2023-04-30T08:57:14;26.65;;;16.63;;
63259;SDS011;49390;51.380;0.098;2023-04-30T08:59:45;25.98;;;15.60;;
63259;SDS011;49390;51.380;0.098;2023-04-30T09:02:13;23.45;;;15.10;;
63259;SDS011;49390;51.380;0.098;2023-04-30T09:04:44;19.80;;;13.93;;
63259;SDS011;49390;51.380;0.098;2023-04-30T09:07:13;22.05;;;14.60;;
63259;SDS011;49390;51.380;0.098;2023-04-30T09:09:42;19.83;;;14.23;;
63259;SDS011;49390;51.380;0.098;2023-04-30T09:12:13;23.10;;;15.27;;
63259;SDS011;49390;51.380;0.098;2023-04-30T09:15:04;20.92;;;13.95;;
63259;SDS011;49390;51.380;0.098;2023-04-30T09:17:35;23.10;;;15.15;;
63259;SDS011;49390;51.380;0.098;2023-04-30T09:20:10;22.13;;;14.35;;
63259;SDS011;49390;51.380;0.098;2023-04-30T09:22:39;20.75;;;13.85;;
63259;SDS011;49390;51.380;0.098;2023-04-30T09:25:09;20.70;;;14.10;;
63259;SDS011;49390;51.380;0.098;2023-04-30T09:27:37;18.80;;;12.40;;
63259;SDS011;49390;51.380;0.098;2023-04-30T09:30:05;17.50;;;11.48;;
63259;SDS011;49390;51.380;0.098;2023-04-30T09:32:34;21.40;;;12.15;;
63259;SDS011;49390;51.380;0.098;2023-04-30T09:35:02;18.83;;;12.70;;
63259;SDS011;49390;51.380;0.098;2023-04-30T09:37:36;16.90;;;12.15;;
63259;SDS011;49390;51.380;0.098;2023-04-30T09:40:04;18.10;;;11.48;;
63259;SDS011;49390;51.380;0.098;2023-04-30T09:42:33;15.55;;;11.25;;
63259;SDS011;49390;51.380;0.098;2023-04-30T09:45:03;17.08;;;11.48;;
63259;SDS011;49390;51.380;0.098;2023-04-30T09:47:31;18.88;;;11.23;;
63259;SDS011;49390;51.380;0.098;2023-04-30T09:49:59;17.83;;;10.65;;
63259;SDS011;49390;51.380;0.098;2023-04-30T09:52:27;18.92;;;12.20;;
63259;SDS011;49390;51.380;0.098;2023-04-30T09:54:55;18.33;;;12.32;;
63259;SDS011;49390;51.380;0.098;2023-04-30T09:57:23;18.25;;;11.13;;
63259;SDS011;49390;51.380;0.098;2023-04-30T09:59:53;16.40;;;10.50;;
63259;SDS011;49390;51.380;0.098;2023-04-30T10:02:24;16.55;;;12.00;;
63259;SDS011;49390;51.380;0.098;2023-04-30T10:04:53;15.77;;;10.80;;
63259;SDS011;49390;51.380;0.098;2023-04-30T10:07:25;15.38;;;10.48;;
63259;SDS011;49390;51.380;0.098;2023-04-30T10:10:10;15.02;;;9.55;;
63259;SDS011;49390;51.380;0.098;2023-04-30T10:12:42;16.88;;;10.45;;
63259;SDS011;49390;51.380;0.098;2023-04-30T10:15:27;15.88;;;10.05;;
63259;SDS011;49390;51.380;0.098;2023-04-30T10:18:04;15.00;;;9.63;;
63259;SDS011;49390;51.380;0.098;2023-04-30T10:20:35;16.05;;;11.02;;
63259;SDS011;49390;51.380;0.098;2023-04-30T10:23:04;17.13;;;10.93;;
63259;SDS011;49390;51.380;0.098;2023-04-30T10:25:33;18.88;;;12.00;;
63259;SDS011;49390;51.380;0.098;2023-04-30T10:28:04;19.25;;;11.50;;
63259;SDS011;49390;51.380;0.098;2023-04-30T10:30:34;17.58;;;11.43;;
63259;SDS011;49390;51.380;0.098;2023-04-30T10:33:16;18.45;;;11.48;;
63259;SDS011;49390;51.380;0.098;2023-04-30T10:35:55;16.88;;;10.52;;
63259;SDS011;49390;51.380;0.098;2023-04-30T10:38:26;18.65;;;11.98;;
63259;SDS011;49390;51.380;0.098;2023-04-30T10:40:57;19.30;;;13.07;;
63259;SDS011;49390;51.380;0.098;2023-04-30T10:43:30;18.38;;;11.00;;
63259;SDS011;49390;51.380;0.098;2023-04-30T10:46:01;17.70;;;10.35;;
63259;SDS011;49390;51.380;0.098;2023-04-30T10:48:32;17.65;;;10.48;;
63259;SDS011;49390;51.380;0.098;2023-04-30T10:51:01;17.80;;;11.60;;
63259;SDS011;49390;51.380;0.098;2023-04-30T10:53:30;17.00;;;10.48;;
63259;SDS011;49390;51.380;0.098;2023-04-30T10:58:36;13.30;;;8.38;;
63259;SDS011;49390;51.380;0.098;2023-04-30T11:01:10;11.95;;;7.63;;
63259;SDS011;49390;51.380;0.098;2023-04-30T11:03:40;12.85;;;8.13;;
63259;SDS011;49390;51.380;0.098;2023-04-30T11:06:47;15.23;;;9.30;;
63259;SDS011;49390;51.380;0.098;2023-04-30T11:09:19;10.00;;;7.35;;
63259;SDS011;49390;51.380;0.098;2023-04-30T11:12:01;14.10;;;8.30;;
63259;SDS011;49390;51.380;0.098;2023-04-30T11:14:30;15.80;;;9.77;;
63259;SDS011;49390;51.380;0.098;2023-04-30T11:17:00;14.32;;;7.95;;
63259;SDS011;49390;51.380;0.098;2023-04-30T11:19:28;14.07;;;8.80;;
63259;SDS011;49390;51.380;0.098;2023-04-30T11:27:27;13.48;;;8.38;;
63259;SDS011;49390;51.380;0.098;2023-04-30T11:30:02;13.40;;;7.78;;
63259;SDS011;49390;51.380;0.098;2023-04-30T11:32:37;13.02;;;8.00;;
63259;SDS011;49390;51.380;0.098;2023-04-30T11:35:06;10.95;;;7.03;;
63259;SDS011;49390;51.380;0.098;2023-04-30T11:37:35;12.70;;;7.63;;
63259;SDS011;49390;51.380;0.098;2023-04-30T11:40:08;10.43;;;7.82;;
63259;SDS011;49390;51.380;0.098;2023-04-30T11:42:38;11.77;;;7.35;;
63259;SDS011;49390;51.380;0.098;2023-04-30T11:45:12;10.60;;;6.82;;
63259;SDS011;49390;51.380;0.098;2023-04-30T11:47:48;12.63;;;8.25;;
63259;SDS011;49390;51.380;0.098;2023-04-30T11:50:21;11.55;;;7.57;;
63259;SDS011;49390;51.380;0.098;2023-04-30T11:52:59;11.55;;;7.80;;
63259;SDS011;49390;51.380;0.098;2023-04-30T11:55:31;13.20;;;8.15;;
63259;SDS011;49390;51.380;0.098;2023-04-30T11:57:59;10.85;;;6.97;;
63259;SDS011;49390;51.380;0.098;2023-04-30T12:00:28;10.95;;;6.97;;
63259;SDS011;49390;51.380;0.098;2023-04-30T12:02:58;11.73;;;7.75;;
63259;SDS011;49390;51.380;0.098;2023-04-30T12:05:30;12.52;;;7.78;;
63259;SDS011;49390;51.380;0.098;2023-04-30T12:07:59;11.55;;;7.43;;
63259;SDS011;49390;51.380;0.098;2023-04-30T12:10:31;11.32;;;7.30;;
63259;SDS011;49390;51.380;0.098;2023-04-30T12:12:59;10.02;;;6.88;;
63259;SDS011;49390;51.380;0.098;2023-04-30T12:15:27;11.13;;;6.90;;
63259;SDS011;49390;51.380;0.098;2023-04-30T12:17:57;11.18;;;7.25;;
63259;SDS011;49390;51.380;0.098;2023-04-30T12:20:27;11.70;;;6.32;;
63259;SDS011;49390;51.380;0.098;2023-04-30T12:22:57;12.30;;;6.93;;
63259;SDS011;49390;51.380;0.098;2023-04-30T12:25:26;13.20;;;7.03;;
63259;SDS011;49390;51.380;0.098;2023-04-30T12:27:57;12.15;;;7.07;;
63259;SDS011;49390;51.380;0.098;2023-04-30T12:30:28;9.82;;;6.63;;
63259;SDS011;49390;51.380;0.098;2023-04-30T12:32:57;9.93;;;6.32;;
63259;SDS011;49390;51.380;0.098;2023-04-30T12:35:26;11.02;;;7.10;;
63259;SDS011;49390;51.380;0.098;2023-04-30T12:38:01;10.43;;;6.45;;
63259;SDS011;49390;51.380;0.098;2023-04-30T12:40:30;10.27;;;7.00;;
63259;SDS011;49390;51.380;0.098;2023-04-30T12:43:08;10.75;;;6.75;;
63259;SDS011;49390;51.380;0.098;2023-04-30T12:48:21;10.82;;;7.05;;
63259;SDS011;49390;51.380;0.098;2023-04-30T12:50:58;9.82;;;6.38;;
63259;SDS011;49390;51.380;0.098;2023-04-30T12:53:31;9.90;;;6.45;;
63259;SDS011;49390;51.380;0.098;2023-04-30T12:56:10;11.25;;;6.95;;
63259;SDS011;49390;51.380;0.098;2023-04-30T12:58:44;11.13;;;6.70;;
63259;SDS011;49390;51.380;0.098;2023-04-30T13:01:18;11.30;;;6.70;;
63259;SDS011;49390;51.380;0.098;2023-04-30T13:03:51;10.85;;;6.40;;
63259;SDS011;49390;51.380;0.098;2023-04-30T13:06:20;9.70;;;5.85;;
63259;SDS011;49390;51.380;0.098;2023-04-30T13:08:50;10.15;;;6.05;;
63259;SDS011;49390;51.380;0.098;2023-04-30T13:11:24;10.52;;;6.38;;
63259;SDS011;49390;51.380;0.098;2023-04-30T13:13:54;10.20;;;5.82;;
63259;SDS011;49390;51.380;0.098;2023-04-30T13:16:22;10.20;;;5.20;;
63259;SDS011;49390;51.380;0.098;2023-04-30T13:18:53;10.40;;;6.78;;
63259;SDS011;49390;51.380;0.098;2023-04-30T13:21:21;9.43;;;6.28;;
63259;SDS011;49390;51.380;0.098;2023-04-30T13:23:51;11.70;;;6.50;;
63259;SDS011;49390;51.380;0.098;2023-04-30T13:26:21;10.32;;;5.97;;
63259;SDS011;49390;51.380;0.098;2023-04-30T13:28:50;10.15;;;6.18;;
63259;SDS011;49390;51.380;0.098;2023-04-30T13:31:18;9.48;;;5.78;;
63259;SDS011;49390;51.380;0.098;2023-04-30T13:33:47;10.02;;;6.15;;
63259;SDS011;49390;51.380;0.098;2023-04-30T13:36:15;10.73;;;6.38;;
63259;SDS011;49390;51.380;0.098;2023-04-30T13:38:43;9.45;;;5.50;;
63259;SDS011;49390;51.380;0.098;2023-04-30T13:41:11;11.32;;;5.97;;
63259;SDS011;49390;51.380;0.098;2023-04-30T13:43:40;9.43;;;5.97;;
63259;SDS011;49390;51.380;0.098;2023-04-30T13:46:09;11.15;;;5.63;;
63259;SDS011;49390;51.380;0.098;2023-04-30T13:48:37;7.72;;;5.28;;
63259;SDS011;49390;51.380;0.098;2023-04-30T13:51:05;10.70;;;5.35;;
63259;SDS011;49390;51.380;0.098;2023-04-30T13:53:33;10.07;;;5.88;;
63259;SDS011;49390;51.380;0.098;2023-04-30T13:56:03;9.68;;;5.97;;
63259;SDS011;49390;51.380;0.098;2023-04-30T13:58:32;8.68;;;5.47;;
63259;SDS011;49390;51.380;0.098;2023-04-30T14:01:00;9.15;;;5.10;;
63259;SDS011;49390;51.380;0.098;2023-04-30T14:03:30;8.30;;;5.43;;
63259;SDS011;49390;51.380;0.098;2023-04-30T14:05:58;8.93;;;5.55;;
63259;SDS011;49390;51.380;0.098;2023-04-30T14:08:26;9.45;;;5.18;;
63259;SDS011;49390;51.380;0.098;2023-04-30T14:10:54;8.55;;;5.28;;
63259;SDS011;49390;51.380;0.098;2023-04-30T14:13:22;8.90;;;5.20;;
63259;SDS011;49390;51.380;0.098;2023-04-30T14:15:50;11.93;;;5.43;;
63259;SDS011;49390;51.380;0.098;2023-04-30T14:18:18;14.85;;;7.60;;
63259;SDS011;49390;51.380;0.098;2023-04-30T14:22:34;8.77;;;4.88;;
63259;SDS011;49390;51.380;0.098;2023-04-30T14:25:05;8.63;;;5.13;;
63259;SDS011;49390;51.380;0.098;2023-04-30T14:27:33;9.13;;;5.75;;
63259;SDS011;49390;51.380;0.098;2023-04-30T14:30:02;8.25;;;5.30;;
63259;SDS011;49390;51.380;0.098;2023-04-30T14:32:30;8.75;;;5.18;;
63259;SDS011;49390;51.380;0.098;2023-04-30T14:34:58;8.82;;;5.57;;
63259;SDS011;49390;51.380;0.098;2023-04-30T14:37:26;9.32;;;5.65;;
63259;SDS011;49390;51.380;0.098;2023-04-30T14:39:54;8.70;;;5.18;;
63259;SDS011;49390;51.380;0.098;2023-04-30T14:42:24;9.50;;;6.10;;
63259;SDS011;49390;51.380;0.098;2023-04-30T14:44:53;8.43;;;5.20;;
63259;SDS011;49390;51.380;0.098;2023-04-30T14:47:20;9.38;;;5.72;;
63259;SDS011;49390;51.380;0.098;2023-04-30T14:49:49;8.65;;;5.05;;
63259;SDS011;49390;51.380;0.098;2023-04-30T14:52:20;9.00;;;4.70;;
63259;SDS011;49390;51.380;0.098;2023-04-30T14:54:48;7.82;;;4.88;;
63259;SDS011;49390;51.380;0.098;2023-04-30T14:57:16;7.50;;;4.50;;
63259;SDS011;49390;51.380;0.098;2023-04-30T14:59:45;8.50;;;5.28;;
63259;SDS011;49390;51.380;0.098;2023-04-30T15:02:13;10.15;;;5.32;;
63259;SDS011;49390;51.380;0.098;2023-04-30T15:04:41;9.93;;;5.75;;
63259;SDS011;49390;51.380;0.098;2023-04-30T15:07:12;8.95;;;4.75;;
63259;SDS011;49390;51.380;0.098;2023-04-30T15:09:40;7.85;;;5.20;;
63259;SDS011;49390;51.380;0.098;2023-04-30T15:12:10;8.77;;;4.93;;
63259;SDS011;49390;51.380;0.098;2023-04-30T15:14:39;8.88;;;5.03;;
63259;SDS011;49390;51.380;0.098;2023-04-30T15:17:07;8.23;;;4.90;;
63259;SDS011;49390;51.380;0.098;2023-04-30T15:19:35;9.23;;;5.05;;
63259;SDS011;49390;51.380;0.098;2023-04-30T15:22:04;10.13;;;5.30;;